Time;durP1;ratioP1;P1;durP2;ratioP2;P2;SDS_P1;SDS_P2;PMS_P1;PMS_P2;Temp;Humidity;BMP_temperature;BMP_pressure;BME280_temperature;BME280_humidity;BME280_pressure;Samples;Min_cycle;Max_cycle;Signal;HPM_P1;HPM_P2
2023/02/11 00:00:35;;;;;;;;;;;;;;;2.66;71.68;102486.75;4105142;28;20017;-64
2023/02/11 00:02:37;;;;;;;;;;;;;;;2.65;71.63;102485.88;4106991;28;20025;-64
2023/02/11 00:04:39;;;;;;;;;;;;;;;2.68;71.86;102490.16;4107815;28;20456;-64
2023/02/11 00:06:41;;;;;;;;;;;;;;;2.68;71.76;102480.38;4107783;28;20017;-63
2023/02/11 00:08:44;;;;;;;;;;;;;;;2.69;71.83;102478.56;4107914;28;20041;-64
2023/02/11 00:10:46;;;;;;;;;;;;;;;2.67;71.73;102486.66;4107328;28;20021;-64
2023/02/11 00:12:48;;;;;;;;;;;;;;;2.64;71.88;102484.16;4107764;28;20024;-63
2023/02/11 00:14:50;;;;;;;;;;;;;;;2.62;71.70;102480.72;4107432;28;20013;-62
2023/02/11 00:16:52;;;;;;;;;;;;;;;2.62;71.84;102479.88;4107692;28;20436;-63
2023/02/11 00:18:54;;;;;;;;;;;;;;;2.59;71.76;102478.22;4107996;28;20025;-64
2023/02/11 00:20:56;;;;;;;;;;;;;;;2.60;72.01;102489.72;4105977;28;20029;-64
2023/02/11 00:22:58;;;;;;;;;;;;;;;2.59;71.78;102504.03;4122546;28;20041;-64
2023/02/11 00:25:01;;;;;;;;;;;;;;;2.62;72.20;102514.53;4091417;28;20018;-64
2023/02/11 00:27:03;;;;;;;;;;;;;;;2.63;72.24;102517.13;4108411;28;20456;-64
2023/02/11 00:29:05;;;;;;;;;;;;;;;2.66;72.25;102521.41;4107549;28;20036;-64
2023/02/11 00:31:07;;;;;;;;;;;;;;;2.67;72.23;102523.16;4120803;28;20013;-64
2023/02/11 00:33:12;;;;;;;;;;;;;;;2.69;72.05;102522.09;4107248;28;20461;-65
2023/02/11 00:35:14;;;;;;;;;;;;;;;2.72;72.00;102506.91;4106210;28;20017;-63
2023/02/11 00:37:16;;;;;;;;;;;;;;;2.73;71.83;102497.94;4106123;28;20017;-64
2023/02/11 00:39:18;;;;;;;;;;;;;;;2.72;71.89;102483.75;4107046;28;20049;-64
2023/02/11 00:41:22;;;;;;;;;;;;;;;2.75;71.99;102474.72;4107280;28;20021;-64
2023/02/11 00:43:23;;;;;;;;;;;;;;;2.74;71.79;102476.50;4106355;28;20419;-64
2023/02/11 00:45:25;;;;;;;;;;;;;;;2.74;71.92;102468.50;4106150;28;20391;-64
2023/02/11 00:47:27;;;;;;;;;;;;;;;2.76;72.04;102479.97;4107364;28;20025;-64
2023/02/11 00:49:29;;;;;;;;;;;;;;;2.78;71.82;102483.41;4104515;28;19962;-64
2023/02/11 00:51:32;;;;;;;;;;;;;;;2.78;71.96;102474.56;4107901;28;20441;-64
2023/02/11 00:53:34;;;;;;;;;;;;;;;2.79;71.87;102485.16;4106653;28;20472;-64
2023/02/11 00:55:36;;;;;;;;;;;;;;;2.79;72.08;102489.59;4106458;28;20001;-64
2023/02/11 00:57:39;;;;;;;;;;;;;;;2.79;72.02;102493.16;4107109;28;20017;-63
2023/02/11 00:59:41;;;;;;;;;;;;;;;2.79;72.05;102493.16;4106160;28;20025;-64
2023/02/11 01:01:43;;;;;;;;;;;;;;;2.81;71.93;102493.06;4107229;28;20665;-64
2023/02/11 01:03:45;;;;;;;;;;;;;;;2.80;71.88;102484.19;4106738;28;20025;-64
2023/02/11 01:05:47;;;;;;;;;;;;;;;2.81;72.10;102491.25;4106328;28;20012;-64
2023/02/11 01:07:49;;;;;;;;;;;;;;;2.82;71.90;102484.97;4106616;28;20390;-63
2023/02/11 01:09:51;;;;;;;;;;;;;;;2.84;71.94;102479.56;4106711;28;20021;-64
2023/02/11 01:11:53;;;;;;;;;;;;;;;2.83;71.89;102481.34;4120156;28;20479;-64
2023/02/11 01:13:56;;;;;;;;;;;;;;;2.84;71.99;102476.88;4107322;28;20029;-64
2023/02/11 01:15:58;;;;;;;;;;;;;;;2.84;72.02;102460.88;4106473;28;20001;-64
2023/02/11 01:18:00;;;;;;;;;;;;;;;2.85;72.04;102452.78;4106406;28;20013;-64
2023/02/11 01:20:03;;;;;;;;;;;;;;;2.85;72.01;102457.25;4106582;28;20468;-63
2023/02/11 01:22:05;;;;;;;;;;;;;;;2.87;72.03;102445.53;4106259;28;20024;-64
2023/02/11 01:24:07;;;;;;;;;;;;;;;2.89;71.75;102429.44;4121658;28;20461;-64
2023/02/11 01:26:11;;;;;;;;;;;;;;;2.89;71.88;102424.13;4106520;28;20018;-64
2023/02/11 01:28:16;;;;;;;;;;;;;;;2.87;71.87;102410.84;4106616;28;20452;-64
2023/02/11 01:30:19;;;;;;;;;;;;;;;2.87;71.91;102418.84;4105994;28;19984;-63
2023/02/11 01:32:22;;;;;;;;;;;;;;;2.87;72.19;102402.84;4106903;28;20374;-64
2023/02/11 01:34:24;;;;;;;;;;;;;;;2.86;72.02;102406.44;4106149;28;20017;-64
2023/02/11 01:36:26;;;;;;;;;;;;;;;2.86;72.18;102410.94;4120827;28;20037;-64
2023/02/11 01:38:28;;;;;;;;;;;;;;;2.85;72.24;102410.09;4106482;28;20022;-64
2023/02/11 01:40:30;;;;;;;;;;;;;;;2.86;72.17;102406.44;4106019;28;20030;-63
2023/02/11 01:42:32;;;;;;;;;;;;;;;2.85;72.35;102407.41;4106712;28;20092;-63
2023/02/11 01:44:35;;;;;;;;;;;;;;;2.85;72.15;102412.75;4104350;28;20020;-64
2023/02/11 01:46:39;;;;;;;;;;;;;;;2.84;72.35;102408.34;4105276;28;20034;-64
2023/02/11 01:48:41;;;;;;;;;;;;;;;2.87;72.30;102407.34;4106853;28;20025;-64
2023/02/11 01:50:43;;;;;;;;;;;;;;;2.88;72.18;102412.59;4105243;28;20452;-63
2023/02/11 01:52:46;;;;;;;;;;;;;;;2.88;72.43;102401.91;4105455;28;20017;-63
2023/02/11 01:57:21;;;;;;;;;;;;;;;2.87;72.46;102402.84;4105741;28;20436;-64
2023/02/11 01:59:24;;;;;;;;;;;;;;;2.89;72.57;102390.28;4120166;28;20016;-64
2023/02/11 02:01:26;;;;;;;;;;;;;;;2.91;72.55;102395.50;4105875;28;20018;-64
2023/02/11 02:03:30;;;;;;;;;;;;;;;2.92;72.35;102388.41;4104680;28;20014;-64
2023/02/11 02:05:32;;;;;;;;;;;;;;;2.92;72.51;102393.72;4104407;28;20014;-64
2023/02/11 02:07:36;;;;;;;;;;;;;;;2.92;72.56;102383.06;4105962;28;20512;-64
2023/02/11 02:09:39;;;;;;;;;;;;;;;2.93;72.55;102374.97;4120056;28;20029;-64
2023/02/11 02:11:41;;;;;;;;;;;;;;;2.95;72.36;102373.06;4106266;28;20017;-64
2023/02/11 02:13:43;;;;;;;;;;;;;;;2.95;72.66;102375.72;4105567;28;20028;-64
2023/02/11 02:15:46;;;;;;;;;;;;;;;2.96;72.58;102380.13;4105468;28;20021;-64
2023/02/11 02:17:50;;;;;;;;;;;;;;;2.98;72.38;102372.00;4105945;28;20013;-64
2023/02/11 02:20:11;;;;;;;;;;;;;;;2.98;72.62;102372.00;4105687;28;20022;-64
2023/02/11 02:22:20;;;;;;;;;;;;;;;2.98;72.44;102372.00;4106407;28;20018;-64
2023/02/11 02:24:31;;;;;;;;;;;;;;;2.98;72.46;102374.66;4105658;28;21601;-64
2023/02/11 02:26:38;;;;;;;;;;;;;;;2.99;72.51;102377.25;4105540;28;20062;-64
2023/02/11 02:28:58;;;;;;;;;;;;;;;2.99;72.86;102382.59;4106436;28;20025;-64
2023/02/11 02:31:04;;;;;;;;;;;;;;;2.99;72.63;102377.25;4104351;28;20025;-64
2023/02/11 02:33:14;;;;;;;;;;;;;;;3.00;72.69;102378.97;4106588;28;20461;-64
2023/02/11 02:35:21;;;;;;;;;;;;;;;3.02;72.38;102373.56;4105233;28;20025;-64
2023/02/11 02:37:24;;;;;;;;;;;;;;;3.04;72.35;102374.31;4105540;28;20024;-64
2023/02/11 02:39:26;;;;;;;;;;;;;;;3.04;72.52;102356.53;4105041;28;20029;-64
2023/02/11 02:41:30;;;;;;;;;;;;;;;3.06;72.29;102362.63;4105492;28;20021;-64
2023/02/11 02:43:31;;;;;;;;;;;;;;;3.09;72.59;102355.38;4105339;28;20488;-64
2023/02/11 02:45:34;;;;;;;;;;;;;;;3.09;72.42;102347.38;4105709;28;20021;-64
2023/02/11 02:47:36;;;;;;;;;;;;;;;3.09;72.73;102350.03;4105648;28;20053;-63
2023/02/11 02:49:39;;;;;;;;;;;;;;;3.10;72.46;102344.59;4105349;28;20029;-64
2023/02/11 02:51:51;;;;;;;;;;;;;;;3.10;72.76;102341.94;4105834;28;20013;-63
2023/02/11 02:53:55;;;;;;;;;;;;;;;3.11;72.24;102348.16;4105793;28;20009;-65
2023/02/11 02:55:59;;;;;;;;;;;;;;;3.11;72.39;102349.00;4105357;28;20045;-65
2023/02/11 02:58:08;;;;;;;;;;;;;;;3.12;72.42;102364.09;4105605;28;20354;-64
2023/02/11 03:00:15;;;;;;;;;;;;;;;3.12;72.52;102342.72;4105778;28;20149;-64
2023/02/11 03:02:18;;;;;;;;;;;;;;;3.12;72.62;102334.72;4104756;28;20025;-65
2023/02/11 03:04:21;;;;;;;;;;;;;;;3.14;72.81;102330.16;4105656;28;20020;-64
2023/02/11 03:06:25;;;;;;;;;;;;;;;3.15;72.80;102328.31;4120785;28;19954;-64
2023/02/11 03:08:29;;;;;;;;;;;;;;;3.15;72.61;102326.53;4106259;28;20013;-65
2023/02/11 03:10:32;;;;;;;;;;;;;;;3.15;72.73;102315.84;4103930;28;20488;-64
2023/02/11 03:12:34;;;;;;;;;;;;;;;3.16;72.49;102330.91;4106016;28;20030;-64
2023/02/11 03:14:39;;;;;;;;;;;;;;;3.16;72.60;102324.72;4105601;28;20013;-63
2023/02/11 03:16:42;;;;;;;;;;;;;;;3.17;72.86;102318.44;4103662;28;19949;-63
2023/02/11 03:18:46;;;;;;;;;;;;;;;3.16;72.96;102325.56;4103867;28;19966;-63
2023/02/11 03:20:48;;;;;;;;;;;;;;;3.17;72.67;102329.97;4104428;28;20013;-64
2023/02/11 03:22:53;;;;;;;;;;;;;;;3.18;72.95;102330.81;4105534;28;20440;-64
2023/02/11 03:24:55;;;;;;;;;;;;;;;3.18;72.58;102326.34;4105277;28;20017;-63
2023/02/11 03:26:58;;;;;;;;;;;;;;;3.18;72.56;102323.69;4105800;28;20440;-63
2023/02/11 03:29:02;;;;;;;;;;;;;;;3.20;72.75;102324.44;4105307;28;20029;-64
2023/02/11 03:31:07;;;;;;;;;;;;;;;3.22;72.76;102325.19;4104942;28;20044;-64
2023/02/11 03:33:11;;;;;;;;;;;;;;;3.21;72.60;102315.50;4105107;28;20020;-64
2023/02/11 03:35:14;;;;;;;;;;;;;;;3.22;72.69;102327.03;4106227;28;20013;-64
2023/02/11 03:37:16;;;;;;;;;;;;;;;3.23;72.63;102329.59;4108849;28;20021;-64
2023/02/11 03:39:21;;;;;;;;;;;;;;;3.24;72.64;102330.44;4108127;28;20029;-64
2023/02/11 03:41:23;;;;;;;;;;;;;;;3.24;72.59;102330.44;4108013;28;20005;-64
2023/02/11 03:43:26;;;;;;;;;;;;;;;3.23;72.40;102328.75;4108687;28;20012;-64
2023/02/11 03:45:28;;;;;;;;;;;;;;;3.25;72.79;102329.53;4108508;28;20025;-64
2023/02/11 03:47:30;;;;;;;;;;;;;;;3.25;72.85;102338.38;4108685;28;20025;-63
2023/02/11 03:49:32;;;;;;;;;;;;;;;3.24;72.71;102334.00;4107488;28;20070;-64
2023/02/11 03:51:34;;;;;;;;;;;;;;;3.26;72.59;102336.59;4108445;28;20021;-64
2023/02/11 03:53:36;;;;;;;;;;;;;;;3.26;72.83;102339.25;4107808;28;20049;-63
2023/02/11 03:55:39;;;;;;;;;;;;;;;3.27;72.96;102332.09;4118892;28;20423;-63
2023/02/11 03:57:41;;;;;;;;;;;;;;;3.25;73.17;102314.34;4108285;28;20005;-63
2023/02/11 03:59:49;;;;;;;;;;;;;;;3.27;73.14;102318.75;4106427;28;20017;-63
2023/02/11 04:01:51;;;;;;;;;;;;;;;3.28;72.90;102320.47;4108053;28;20025;-63
2023/02/11 04:03:53;;;;;;;;;;;;;;;3.29;73.18;102327.50;4107663;28;20508;-63
2023/02/11 04:05:55;;;;;;;;;;;;;;;3.27;73.13;102311.59;4108384;28;20028;-63
2023/02/11 04:07:57;;;;;;;;;;;;;;;3.29;72.86;102309.69;4108117;28;20476;-63
2023/02/11 04:09:59;;;;;;;;;;;;;;;3.29;72.94;102309.69;4107465;28;20033;-63
2023/02/11 04:12:02;;;;;;;;;;;;;;;3.29;72.81;102317.72;4108460;28;20016;-64
2023/02/11 04:14:04;;;;;;;;;;;;;;;3.31;73.04;102320.25;4107161;28;20025;-64
2023/02/11 04:16:06;;;;;;;;;;;;;;;3.30;72.93;102324.75;4107666;28;20013;-63
2023/02/11 04:18:08;;;;;;;;;;;;;;;3.31;72.88;102323.81;4106927;28;20100;-64
2023/02/11 04:20:11;;;;;;;;;;;;;;;3.32;72.60;102319.31;4107191;28;20444;-63
2023/02/11 04:22:13;;;;;;;;;;;;;;;3.33;72.92;102329.06;4107006;28;20029;-63
2023/02/11 04:24:15;;;;;;;;;;;;;;;3.34;72.90;102326.31;4105554;28;20021;-63
2023/02/11 04:26:17;;;;;;;;;;;;;;;3.34;72.98;102317.41;4106378;28;20005;-64
2023/02/11 04:28:20;;;;;;;;;;;;;;;3.34;72.73;102318.28;4107510;28;20017;-64
2023/02/11 04:30:22;;;;;;;;;;;;;;;3.36;72.67;102320.88;4107216;28;20637;-63
2023/02/11 04:32:24;;;;;;;;;;;;;;;3.35;72.56;102320.00;4106807;28;20017;-64
2023/02/11 04:34:26;;;;;;;;;;;;;;;3.35;72.50;102320.00;4106781;28;20018;-64
2023/02/11 04:36:28;;;;;;;;;;;;;;;3.37;72.42;102317.22;4107729;28;20034;-64
2023/02/11 04:38:30;;;;;;;;;;;;;;;3.37;72.51;102314.56;4107513;28;20050;-64
2023/02/11 04:40:32;;;;;;;;;;;;;;;3.39;72.80;102312.69;4106863;28;20020;-63
2023/02/11 04:42:34;;;;;;;;;;;;;;;3.39;73.44;102302.84;4107703;28;20025;-63
2023/02/11 04:44:37;;;;;;;;;;;;;;;3.39;73.18;102304.66;4106689;28;20026;-63
2023/02/11 04:46:39;;;;;;;;;;;;;;;3.39;73.62;102302.00;4106892;28;20030;-64
2023/02/11 04:48:41;;;;;;;;;;;;;;;3.40;73.47;102303.69;4107603;28;20022;-64
2023/02/11 04:50:43;;;;;;;;;;;;;;;3.42;73.10;102301.81;4106751;28;20034;-64
2023/02/11 04:52:45;;;;;;;;;;;;;;;3.42;73.21;102299.13;4107186;28;20029;-64
2023/02/11 04:54:47;;;;;;;;;;;;;;;3.43;73.19;102298.16;4106768;28;20358;-64
2023/02/11 04:56:49;;;;;;;;;;;;;;;3.44;73.56;102286.53;4107204;28;20017;-63
2023/02/11 04:58:51;;;;;;;;;;;;;;;3.44;74.24;102289.22;4107304;28;20361;-64
2023/02/11 05:00:55;;;;;;;;;;;;;;;3.45;73.72;102290.06;4106942;28;20432;-64
2023/02/11 05:02:57;;;;;;;;;;;;;;;3.45;73.23;102284.72;4107165;28;20022;-63
2023/02/11 05:04:59;;;;;;;;;;;;;;;3.45;73.34;102277.59;4105915;28;20028;-63
2023/02/11 05:07:00;;;;;;;;;;;;;;;3.47;73.74;102272.16;4107509;28;20030;-63
2023/02/11 05:09:02;;;;;;;;;;;;;;;3.48;73.35;102272.06;4107159;28;20026;-63
2023/02/11 05:11:04;;;;;;;;;;;;;;;3.48;73.67;102269.38;4103746;28;20617;-63
2023/02/11 05:13:06;;;;;;;;;;;;;;;3.50;73.55;102266.63;4107636;28;20037;-64
2023/02/11 05:15:08;;;;;;;;;;;;;;;3.50;73.77;102266.63;4107307;28;20444;-64
2023/02/11 05:17:12;;;;;;;;;;;;;;;3.51;74.12;102265.66;4107484;28;20049;-63
2023/02/11 05:19:14;;;;;;;;;;;;;;;3.50;73.87;102262.13;4107303;28;20448;-63
2023/02/11 05:21:16;;;;;;;;;;;;;;;3.52;73.86;102256.69;4106190;28;20021;-63
2023/02/11 05:23:18;;;;;;;;;;;;;;;3.51;73.73;102255.84;4106813;28;20013;-63
2023/02/11 05:25:20;;;;;;;;;;;;;;;3.52;73.31;102244.19;4106164;28;20025;-64
2023/02/11 05:27:22;;;;;;;;;;;;;;;3.51;73.29;102238.94;4106788;28;20612;-63
2023/02/11 05:29:24;;;;;;;;;;;;;;;3.54;73.57;102228.94;4104989;28;20025;-63
2023/02/11 05:31:26;;;;;;;;;;;;;;;3.54;73.26;102239.63;4106895;28;20024;-63
2023/02/11 05:33:29;;;;;;;;;;;;;;;3.56;73.67;102228.84;4107044;28;20350;-63
2023/02/11 05:35:31;;;;;;;;;;;;;;;3.56;73.78;102220.84;4106240;28;20445;-64
2023/02/11 05:37:33;;;;;;;;;;;;;;;3.58;74.19;102229.59;4106767;28;20037;-64
2023/02/11 05:39:35;;;;;;;;;;;;;;;3.58;74.08;102225.09;4105860;28;20010;-64
2023/02/11 05:41:37;;;;;;;;;;;;;;;3.60;74.08;102223.22;4105146;28;20049;-64
2023/02/11 05:43:39;;;;;;;;;;;;;;;3.60;74.09;102233.91;4106006;28;20016;-63
2023/02/11 05:45:41;;;;;;;;;;;;;;;3.63;74.38;102223.97;4105752;28;20451;-63
2023/02/11 05:47:43;;;;;;;;;;;;;;;3.61;74.70;102224.91;4106637;28;20021;-63
2023/02/11 05:49:46;;;;;;;;;;;;;;;3.63;74.65;102215.97;4089306;28;21821;-63
2023/02/11 05:51:48;;;;;;;;;;;;;;;3.63;74.75;102213.28;4105803;28;20013;-64
2023/02/11 05:53:50;;;;;;;;;;;;;;;3.63;74.92;102218.63;4105435;28;20025;-64
2023/02/11 05:55:52;;;;;;;;;;;;;;;3.65;75.15;102227.41;4105767;28;20017;-63
2023/02/11 05:57:54;;;;;;;;;;;;;;;3.64;74.95;102210.53;4106542;28;20481;-64
2023/02/11 05:59:56;;;;;;;;;;;;;;;3.65;74.82;102214.88;4105370;28;20038;-63
2023/02/11 06:01:58;;;;;;;;;;;;;;;3.68;74.73;102227.22;4106232;28;20013;-64
2023/02/11 06:04:00;;;;;;;;;;;;;;;3.66;74.57;102219.28;4105773;28;20020;-63
2023/02/11 06:06:04;;;;;;;;;;;;;;;3.67;74.37;102245.06;4105722;28;20021;-64
2023/02/11 06:08:06;;;;;;;;;;;;;;;3.69;74.85;102221.78;4103819;28;20041;-63
2023/02/11 06:10:08;;;;;;;;;;;;;;;3.69;75.24;102216.44;4117882;28;20029;-63
2023/02/11 06:12:10;;;;;;;;;;;;;;;3.72;75.27;102220.75;4106289;28;20025;-63
2023/02/11 06:14:13;;;;;;;;;;;;;;;3.73;74.95;102227.78;4105374;28;20028;-64
2023/02/11 06:16:15;;;;;;;;;;;;;;;3.75;74.82;102223.22;4104244;28;20647;-64
2023/02/11 06:18:17;;;;;;;;;;;;;;;3.72;74.59;102239.44;4084875;28;20037;-63
2023/02/11 06:20:19;;;;;;;;;;;;;;;3.75;74.70;102241.94;4087528;28;19930;-63
2023/02/11 06:22:22;;;;;;;;;;;;;;;3.76;74.98;102236.47;4096455;28;20029;-63
2023/02/11 06:24:24;;;;;;;;;;;;;;;3.77;75.22;102237.34;4102729;28;20009;-64
2023/02/11 06:26:26;;;;;;;;;;;;;;;3.76;74.96;102239.16;4104362;28;20021;-64
2023/02/11 06:28:30;;;;;;;;;;;;;;;3.77;75.56;102245.34;4101891;28;20013;-64
2023/02/11 06:30:32;;;;;;;;;;;;;;;3.77;75.13;102243.53;4103725;28;20362;-63
2023/02/11 06:32:33;;;;;;;;;;;;;;;3.78;75.38;102234.56;4104612;28;20013;-64
2023/02/11 06:34:35;;;;;;;;;;;;;;;3.78;75.22;102239.06;4104365;28;20049;-63
2023/02/11 06:36:38;;;;;;;;;;;;;;;3.78;75.05;102242.59;4105168;28;20629;-63
2023/02/11 06:38:41;;;;;;;;;;;;;;;3.81;75.81;102246.00;4103539;28;20017;-64
2023/02/11 06:40:46;;;;;;;;;;;;;;;3.81;76.06;102233.53;4103761;28;20429;-64
2023/02/11 06:42:48;;;;;;;;;;;;;;;3.79;75.78;102246.09;4106476;28;20433;-63
2023/02/11 06:44:50;;;;;;;;;;;;;;;3.81;76.25;102221.94;4104711;28;20379;-64
2023/02/11 06:46:52;;;;;;;;;;;;;;;3.82;76.75;102218.34;4105945;28;20022;-63
2023/02/11 06:48:54;;;;;;;;;;;;;;;3.83;76.63;102228.94;4105846;28;20017;-64
2023/02/11 06:50:56;;;;;;;;;;;;;;;3.84;76.96;102225.31;4103884;28;20017;-63
2023/02/11 06:52:58;;;;;;;;;;;;;;;3.86;77.19;102226.06;4104966;28;20009;-63
2023/02/11 06:55:01;;;;;;;;;;;;;;;3.86;76.80;102220.72;4104003;28;20033;-64
2023/02/11 06:57:04;;;;;;;;;;;;;;;3.88;76.39;102217.94;4105897;28;21222;-64
2023/02/11 06:59:06;;;;;;;;;;;;;;;3.88;76.32;102212.59;4105521;28;20064;-63
2023/02/11 07:01:08;;;;;;;;;;;;;;;3.88;76.43;102216.13;4104362;28;20372;-64
2023/02/11 07:03:10;;;;;;;;;;;;;;;3.88;76.02;102221.47;4105312;28;20407;-63
2023/02/11 07:05:12;;;;;;;;;;;;;;;3.89;76.54;102225.88;4104099;28;20449;-63
2023/02/11 07:07:14;;;;;;;;;;;;;;;3.90;76.49;102226.72;4105591;28;20009;-63
2023/02/11 07:09:16;;;;;;;;;;;;;;;3.92;76.72;102232.84;4104932;28;20013;-64
2023/02/11 07:11:23;;;;;;;;;;;;;;;3.93;77.14;102213.16;4106886;28;20022;-63
2023/02/11 07:13:24;;;;;;;;;;;;;;;3.95;77.11;102217.47;4123411;28;20508;-63
2023/02/11 07:15:26;;;;;;;;;;;;;;;3.96;77.07;102211.16;4107014;28;20017;-63
2023/02/11 07:17:28;;;;;;;;;;;;;;;3.95;77.17;102209.44;4108400;28;20025;-64
2023/02/11 07:19:30;;;;;;;;;;;;;;;3.97;77.22;102212.88;4107733;28;20050;-63
2023/02/11 07:21:32;;;;;;;;;;;;;;;3.99;77.22;102206.59;4091422;29;20017;-63
2023/02/11 07:23:34;;;;;;;;;;;;;;;4.00;77.29;102202.94;4108864;28;20005;-63
2023/02/11 07:25:37;;;;;;;;;;;;;;;4.00;77.85;102205.59;4108983;28;20029;-64
2023/02/11 07:27:40;;;;;;;;;;;;;;;3.99;77.37;102204.75;4105928;28;20037;-63
2023/02/11 07:29:44;;;;;;;;;;;;;;;3.99;77.24;102209.25;4107754;28;20021;-64
2023/02/11 07:31:46;;;;;;;;;;;;;;;4.01;77.47;102207.34;4105258;28;20021;-64
2023/02/11 07:33:49;;;;;;;;;;;;;;;4.01;77.46;102196.63;4105677;28;20045;-64
2023/02/11 07:35:50;;;;;;;;;;;;;;;4.04;77.79;102205.31;4105692;28;20017;-64
2023/02/11 07:37:52;;;;;;;;;;;;;;;4.04;77.23;102204.47;4106918;28;20345;-63
2023/02/11 07:39:54;;;;;;;;;;;;;;;4.04;76.81;102191.94;4105483;28;20044;-64
2023/02/11 07:41:57;;;;;;;;;;;;;;;4.06;76.96;102203.41;4105232;28;20034;-63
2023/02/11 07:44:01;;;;;;;;;;;;;;;4.08;77.26;102188.13;4120020;28;20025;-63
2023/02/11 07:46:04;;;;;;;;;;;;;;;4.08;77.43;102198.81;4106211;28;20033;-63
2023/02/11 07:48:06;;;;;;;;;;;;;;;4.10;76.99;102172.84;4105964;28;20021;-64
2023/02/11 07:50:08;;;;;;;;;;;;;;;4.11;77.15;102195.09;4104518;28;20025;-63
2023/02/11 07:52:10;;;;;;;;;;;;;;;4.14;77.13;102194.91;4106550;28;20032;-63
2023/02/11 07:54:12;;;;;;;;;;;;;;;4.15;77.66;102185.91;4106252;28;20013;-63
2023/02/11 07:56:14;;;;;;;;;;;;;;;4.16;78.28;102192.97;4106606;28;20033;-63
2023/02/11 07:58:16;;;;;;;;;;;;;;;4.17;77.82;102199.19;4105844;28;20024;-64
2023/02/11 08:00:20;;;;;;;;;;;;;;;4.18;77.74;102200.91;4106265;28;19997;-63
2023/02/11 08:02:22;;;;;;;;;;;;;;;4.19;77.72;102191.94;4105240;28;20033;-63
2023/02/11 08:04:24;;;;;;;;;;;;;;;4.21;77.91;102198.88;4104783;28;20020;-63
2023/02/11 08:06:26;;;;;;;;;;;;;;;4.18;77.49;102201.75;4105204;28;20030;-64
2023/02/11 08:08:28;;;;;;;;;;;;;;;4.17;76.90;102194.72;4106733;28;20017;-64
2023/02/11 08:10:30;;;;;;;;;;;;;;;4.20;77.50;102196.31;4103782;28;20017;-63
2023/02/11 08:12:32;;;;;;;;;;;;;;;4.20;77.10;102201.66;4105248;28;20032;-64
2023/02/11 08:14:34;;;;;;;;;;;;;;;4.22;77.58;102216.66;4106031;28;20112;-63
2023/02/11 08:16:38;;;;;;;;;;;;;;;4.24;77.58;102213.88;4105353;28;20375;-63
2023/02/11 08:18:40;;;;;;;;;;;;;;;4.26;77.53;102217.31;4105392;28;20477;-63
2023/02/11 08:20:42;;;;;;;;;;;;;;;4.26;77.97;102234.22;4104885;28;20021;-63
2023/02/11 08:22:44;;;;;;;;;;;;;;;4.25;77.40;102231.66;4104666;28;20053;-63
2023/02/11 08:24:46;;;;;;;;;;;;;;;4.25;77.28;102234.31;4104545;28;20045;-63
2023/02/11 08:26:48;;;;;;;;;;;;;;;4.20;77.24;102231.06;4105506;28;20030;-63
2023/02/11 08:28:51;;;;;;;;;;;;;;;4.26;77.40;102230.69;4105393;28;20025;-64
2023/02/11 08:30:53;;;;;;;;;;;;;;;4.29;77.37;102230.47;4105325;28;20021;-63
2023/02/11 08:32:56;;;;;;;;;;;;;;;4.30;77.53;102238.41;4106251;28;20017;-63
2023/02/11 08:34:58;;;;;;;;;;;;;;;4.30;77.38;102246.44;4104929;28;20470;-63
2023/02/11 08:37:00;;;;;;;;;;;;;;;4.32;77.61;102233.81;4106308;28;20020;-63
2023/02/11 08:39:03;;;;;;;;;;;;;;;4.33;77.80;102232.84;4105358;28;20025;-63
2023/02/11 08:41:05;;;;;;;;;;;;;;;4.35;78.23;102238.09;4104624;28;20021;-63
2023/02/11 08:43:07;;;;;;;;;;;;;;;4.35;77.75;102240.78;4106247;28;20028;-63
2023/02/11 08:45:11;;;;;;;;;;;;;;;4.37;77.16;102246.03;4105139;28;20020;-63
2023/02/11 08:47:13;;;;;;;;;;;;;;;4.40;77.31;102243.16;4104719;28;20017;-62
2023/02/11 08:49:16;;;;;;;;;;;;;;;4.40;77.73;102251.19;4105059;28;20392;-63
2023/02/11 08:51:19;;;;;;;;;;;;;;;4.43;78.37;102240.28;4105722;28;20017;-63
2023/02/11 08:53:21;;;;;;;;;;;;;;;4.44;78.44;102242.88;4105612;28;20353;-63
2023/02/11 08:55:23;;;;;;;;;;;;;;;4.45;78.14;102241.91;4105116;28;20079;-64
2023/02/11 08:57:25;;;;;;;;;;;;;;;4.47;78.41;102225.75;4105172;28;20018;-64
2023/02/11 08:59:27;;;;;;;;;;;;;;;4.49;78.02;102219.31;4105905;28;20413;-63
2023/02/11 09:01:30;;;;;;;;;;;;;;;4.47;78.20;102218.56;4105248;28;20076;-63
2023/02/11 09:03:32;;;;;;;;;;;;;;;4.46;78.24;102214.19;4105336;28;20033;-64
2023/02/11 09:05:35;;;;;;;;;;;;;;;4.50;78.40;102204.16;4104773;28;20021;-63
2023/02/11 09:07:37;;;;;;;;;;;;;;;4.50;78.45;102215.72;4105504;28;20343;-64
2023/02/11 09:09:39;;;;;;;;;;;;;;;4.49;78.29;102213.97;4103558;28;19962;-64
2023/02/11 09:11:42;;;;;;;;;;;;;;;4.51;78.15;102206.72;4104439;28;20029;-63
2023/02/11 09:13:44;;;;;;;;;;;;;;;4.54;78.41;102207.47;4105323;28;20013;-64
2023/02/11 09:15:46;;;;;;;;;;;;;;;4.56;78.69;102216.25;4104401;28;20033;-63
2023/02/11 09:17:48;;;;;;;;;;;;;;;4.55;78.56;102219.91;4104942;28;20025;-63
2023/02/11 09:19:50;;;;;;;;;;;;;;;4.54;78.63;102221.69;4104204;28;20036;-63
2023/02/11 09:21:54;;;;;;;;;;;;;;;4.56;78.12;102229.63;4103704;28;20025;-63
2023/02/11 09:23:56;;;;;;;;;;;;;;;4.56;78.77;102213.56;4104175;28;20120;-64
2023/02/11 09:25:58;;;;;;;;;;;;;;;4.54;78.50;102219.03;4103280;28;20034;-63
2023/02/11 09:27:59;;;;;;;;;;;;;;;4.56;78.64;102235.84;4104243;28;20017;-63
2023/02/11 09:30:01;;;;;;;;;;;;;;;4.58;78.56;102230.41;4104915;28;20033;-64
2023/02/11 09:32:04;;;;;;;;;;;;;;;4.59;79.33;102235.66;4106072;28;20025;-65
2023/02/11 09:34:06;;;;;;;;;;;;;;;4.60;79.25;102249.88;4105552;28;20012;-64
2023/02/11 09:36:09;;;;;;;;;;;;;;;4.61;79.36;102228.38;4105347;28;20029;-64
2023/02/11 09:38:12;;;;;;;;;;;;;;;4.64;79.04;102227.28;4105158;28;20108;-64
2023/02/11 09:40:14;;;;;;;;;;;;;;;4.64;78.99;102236.22;4103630;28;20028;-64
2023/02/11 09:42:20;;;;;;;;;;;;;;;4.64;79.20;102238.88;4104658;28;20037;-63
2023/02/11 09:44:23;;;;;;;;;;;;;;;4.65;79.05;102248.59;4105764;28;20013;-65
2023/02/11 09:46:25;;;;;;;;;;;;;;;4.67;78.72;102244.03;4105899;28;20364;-64
2023/02/11 09:48:27;;;;;;;;;;;;;;;4.66;78.79;102236.94;4105559;28;20021;-64
2023/02/11 09:50:30;;;;;;;;;;;;;;;4.67;78.48;102237.78;4104487;28;20045;-64
2023/02/11 09:52:33;;;;;;;;;;;;;;;4.68;78.72;102248.41;4106289;28;20029;-63
2023/02/11 09:54:37;;;;;;;;;;;;;;;4.71;79.14;102250.03;4104140;28;20025;-64
2023/02/11 09:56:39;;;;;;;;;;;;;;;4.72;78.75;102248.19;4105191;28;20017;-64
2023/02/11 09:58:42;;;;;;;;;;;;;;;4.71;78.54;102251.84;4105985;28;20030;-64
2023/02/11 10:00:45;;;;;;;;;;;;;;;4.73;78.50;102248.09;4105301;28;20053;-64
2023/02/11 10:02:53;;;;;;;;;;;;;;;4.73;78.42;102256.13;4103278;28;20009;-64
2023/02/11 10:05:05;;;;;;;;;;;;;;;4.72;78.55;102274.97;4104095;28;20029;-64
2023/02/11 10:07:07;;;;;;;;;;;;;;;4.70;78.33;102280.41;4102715;28;20476;-64
2023/02/11 10:09:22;;;;;;;;;;;;;;;4.73;78.82;102279.38;4103530;28;20025;-64
2023/02/11 10:11:26;;;;;;;;;;;;;;;4.75;78.94;102270.28;4102395;28;21232;-63
2023/02/11 10:13:41;;;;;;;;;;;;;;;4.76;78.58;102268.47;4102922;28;20021;-64
2023/02/11 10:15:45;;;;;;;;;;;;;;;4.75;78.57;102275.66;4103493;28;20021;-65
2023/02/11 10:17:51;;;;;;;;;;;;;;;4.76;78.51;102282.69;4102836;28;20024;-63
2023/02/11 10:19:57;;;;;;;;;;;;;;;4.76;78.47;102279.16;4103287;28;20017;-65
2023/02/11 10:22:02;;;;;;;;;;;;;;;4.77;78.80;102271.03;4103594;28;20758;-63
2023/02/11 10:24:05;;;;;;;;;;;;;;;4.78;78.50;102278.13;4103441;28;20024;-64
2023/02/11 10:26:10;;;;;;;;;;;;;;;4.81;78.60;102290.41;4103914;28;20017;-64
2023/02/11 10:28:15;;;;;;;;;;;;;;;4.83;79.06;102281.34;4103760;28;20028;-64
2023/02/11 10:30:21;;;;;;;;;;;;;;;4.86;79.47;102280.28;4104034;28;20037;-64
2023/02/11 10:32:27;;;;;;;;;;;;;;;4.83;79.25;102277.81;4103087;28;20025;-63
2023/02/11 10:34:29;;;;;;;;;;;;;;;4.82;79.10;102287.66;4103382;28;20025;-64
2023/02/11 10:36:31;;;;;;;;;;;;;;;4.82;78.86;102294.81;4102914;28;20375;-64
2023/02/11 10:38:35;;;;;;;;;;;;;;;4.85;79.22;102281.25;4102613;28;20025;-65
2023/02/11 10:40:37;;;;;;;;;;;;;;;4.84;79.02;102274.16;4101331;28;20025;-64
2023/02/11 10:42:39;;;;;;;;;;;;;;;4.85;79.51;102292.78;4102962;28;20365;-64